createdAt,value
2023-03-22T00:00:16.821Z,57.03
2023-03-22T00:03:06.264Z,57.02
2023-03-22T00:05:35.266Z,57.25
2023-03-22T00:08:06.548Z,57.36
2023-03-22T00:10:38.170Z,57.39
2023-03-22T00:13:09.440Z,57.47
2023-03-22T00:15:39.048Z,57.52
2023-03-22T00:18:08.017Z,57.80
2023-03-22T00:20:38.981Z,57.83
2023-03-22T00:23:08.588Z,57.84
2023-03-22T00:25:37.464Z,58.01
2023-03-22T00:28:06.874Z,57.97
2023-03-22T00:30:35.845Z,58.09
2023-03-22T00:33:05.184Z,58.20
2023-03-22T00:35:34.678Z,58.17
2023-03-22T00:38:05.850Z,58.18
2023-03-22T00:40:34.814Z,58.19
2023-03-22T00:43:03.901Z,58.39
2023-03-22T00:45:35.674Z,58.46
2023-03-22T00:48:04.691Z,58.43
2023-03-22T00:50:33.594Z,58.47
2023-03-22T00:53:02.700Z,58.51
2023-03-22T00:55:32.057Z,58.61
2023-03-22T00:58:01.170Z,58.74
2023-03-22T01:00:31.065Z,58.71
2023-03-22T01:03:03.558Z,58.80
2023-03-22T01:05:34.480Z,58.88
2023-03-22T01:08:07.888Z,58.86
2023-03-22T01:10:37.791Z,58.93
2023-03-22T01:13:08.161Z,58.98
2023-03-22T01:15:37.234Z,59.09
2023-03-22T01:18:07.022Z,59.11
2023-03-22T01:20:36.636Z,59.22
2023-03-22T01:23:05.670Z,59.18
2023-03-22T01:25:34.730Z,59.18
2023-03-22T01:28:06.138Z,59.40
2023-03-22T01:30:35.262Z,59.38
2023-03-22T01:33:05.166Z,59.45
2023-03-22T01:35:34.130Z,59.54
2023-03-22T01:38:04.051Z,59.65
2023-03-22T01:40:33.881Z,59.72
2023-03-22T01:43:03.416Z,59.92
2023-03-22T01:45:39.913Z,59.94
2023-03-22T01:48:26.154Z,59.82
2023-03-22T01:50:59.269Z,60.20
2023-03-22T01:53:28.555Z,60.24
2023-03-22T01:55:58.799Z,60.07
2023-03-22T01:58:28.276Z,60.33
2023-03-22T02:00:58.323Z,60.25
2023-03-22T02:03:35.899Z,60.28
2023-03-22T02:06:05.320Z,60.30
2023-03-22T02:08:34.194Z,60.41
2023-03-22T02:11:04.713Z,60.56
2023-03-22T02:13:47.396Z,60.60
2023-03-22T02:16:31.003Z,60.56
2023-03-22T02:19:28.652Z,60.70
2023-03-22T02:22:41.141Z,60.63
2023-03-22T02:25:33.300Z,60.69
2023-03-22T02:28:13.626Z,60.65
2023-03-22T02:31:16.828Z,60.75
2023-03-22T02:34:24.843Z,60.84
2023-03-22T02:37:35.144Z,60.94
2023-03-22T02:40:14.206Z,60.98
2023-03-22T02:42:55.678Z,60.84
2023-03-22T02:45:33.230Z,61.10
2023-03-22T02:48:08.611Z,60.92
2023-03-22T02:50:43.281Z,60.99
2023-03-22T02:53:18.725Z,61.09
2023-03-22T02:55:52.359Z,61.12
2023-03-22T02:58:25.915Z,61.06
2023-03-22T03:00:59.761Z,61.14
2023-03-22T03:03:31.498Z,61.18
2023-03-22T03:06:05.507Z,61.11
2023-03-22T03:08:36.177Z,61.37
2023-03-22T03:11:05.542Z,61.33
2023-03-22T03:13:34.433Z,61.58
2023-03-22T03:16:07.302Z,61.49
2023-03-22T03:18:44.722Z,61.71
2023-03-22T03:21:32.078Z,61.60
2023-03-22T03:24:12.351Z,61.74
2023-03-22T03:26:49.042Z,61.70
2023-03-22T03:29:25.987Z,61.74
2023-03-22T03:32:01.810Z,61.80
2023-03-22T03:34:32.860Z,61.71
2023-03-22T03:37:07.681Z,61.81
2023-03-22T03:39:42.195Z,61.94
2023-03-22T03:42:15.527Z,61.95
2023-03-22T03:44:45.386Z,62.00
2023-03-22T03:47:16.149Z,62.00
2023-03-22T03:49:45.609Z,62.18
2023-03-22T03:52:14.962Z,62.20
2023-03-22T03:54:45.171Z,62.30
2023-03-22T03:57:15.993Z,62.30
2023-03-22T03:59:44.865Z,62.49
2023-03-22T04:02:13.882Z,62.36
2023-03-22T04:04:43.087Z,62.51
2023-03-22T04:07:12.078Z,62.36
2023-03-22T04:09:42.176Z,62.44
2023-03-22T04:12:11.178Z,62.49
2023-03-22T04:14:41.103Z,62.62
2023-03-22T04:17:10.607Z,62.71
2023-03-22T04:19:39.429Z,62.79
2023-03-22T04:22:13.891Z,62.75
2023-03-22T04:24:43.528Z,62.74
2023-03-22T04:27:12.386Z,62.66
2023-03-22T04:29:47.956Z,62.89
2023-03-22T04:32:18.781Z,62.88
2023-03-22T04:34:47.688Z,63.05
2023-03-22T04:37:17.346Z,63.01
2023-03-22T04:39:46.848Z,63.12
2023-03-22T04:42:15.820Z,63.14
2023-03-22T04:44:44.805Z,63.03
2023-03-22T04:47:13.920Z,63.18
2023-03-22T04:49:42.891Z,63.24
2023-03-22T04:52:12.078Z,63.24
2023-03-22T04:54:41.292Z,63.28
2023-03-22T04:57:10.374Z,63.29
2023-03-22T04:59:39.465Z,63.41
2023-03-22T05:02:08.378Z,63.52
2023-03-22T05:04:37.360Z,63.44
2023-03-22T05:07:06.583Z,63.55
2023-03-22T05:09:35.571Z,63.46
2023-03-22T05:12:04.668Z,63.68
2023-03-22T05:14:33.681Z,63.65
2023-03-22T05:17:03.214Z,63.49
2023-03-22T05:19:32.641Z,63.58
2023-03-22T05:22:01.476Z,63.48
2023-03-22T05:24:31.384Z,63.67
2023-03-22T05:27:00.789Z,63.71
2023-03-22T05:29:36.105Z,63.75
2023-03-22T05:32:05.412Z,63.75
2023-03-22T05:34:35.358Z,63.83
2023-03-22T05:37:04.544Z,63.87
2023-03-22T05:39:33.778Z,63.91
2023-03-22T05:42:02.833Z,63.91
2023-03-22T05:44:31.887Z,63.85
2023-03-22T05:47:00.983Z,63.91
2023-03-22T05:49:30.594Z,64.10
2023-03-22T05:51:59.435Z,63.90
2023-03-22T05:54:28.371Z,63.98
2023-03-22T05:56:57.386Z,64.02
2023-03-22T05:59:26.265Z,64.03
2023-03-22T06:01:55.197Z,64.03
2023-03-22T06:04:24.274Z,64.11
2023-03-22T06:06:53.445Z,63.97
2023-03-22T06:09:22.393Z,64.07
2023-03-22T06:11:51.407Z,63.89
2023-03-22T06:14:20.569Z,64.04
2023-03-22T06:16:49.585Z,64.15
2023-03-22T06:19:18.755Z,64.07
2023-03-22T06:21:47.725Z,64.14
2023-03-22T06:24:16.677Z,64.14
2023-03-22T06:26:45.765Z,64.15
2023-03-22T06:29:14.763Z,63.98
2023-03-22T06:31:43.785Z,63.89
2023-03-22T06:34:12.835Z,64.03
2023-03-22T06:36:41.823Z,64.01
2023-03-22T06:39:10.805Z,64.22
2023-03-22T06:41:39.915Z,64.11
2023-03-22T06:44:09.015Z,64.12
2023-03-22T06:46:38.076Z,64.13
2023-03-22T06:49:07.426Z,64.02
2023-03-22T06:51:36.646Z,64.26
2023-03-22T06:54:06.014Z,64.39
2023-03-22T06:56:34.951Z,64.50
2023-03-22T06:59:03.960Z,64.35
2023-03-22T07:01:33.141Z,64.46
2023-03-22T07:04:02.280Z,64.34
2023-03-22T07:06:32.124Z,64.52
2023-03-22T07:09:01.643Z,64.53
2023-03-22T07:11:30.565Z,64.52
2023-03-22T07:13:59.441Z,64.55
2023-03-22T07:16:28.545Z,64.62
2023-03-22T07:18:57.709Z,64.60
2023-03-22T07:21:26.901Z,64.65
2023-03-22T07:23:56.015Z,64.63
2023-03-22T07:26:25.807Z,64.65
2023-03-22T07:28:54.734Z,64.73
2023-03-22T07:31:23.748Z,64.81
2023-03-22T07:33:52.802Z,64.86
2023-03-22T07:36:23.337Z,64.89
2023-03-22T07:38:52.457Z,64.86
2023-03-22T07:41:23.421Z,65.00
2023-03-22T07:43:58.278Z,65.01
2023-03-22T07:46:31.387Z,65.08
2023-03-22T07:49:00.756Z,65.00
2023-03-22T07:51:29.883Z,65.09
2023-03-22T07:53:58.898Z,65.01
2023-03-22T07:56:28.149Z,65.00
2023-03-22T07:58:57.068Z,65.15
2023-03-22T08:01:26.332Z,65.33
2023-03-22T08:03:55.386Z,65.32
2023-03-22T08:06:24.563Z,65.32
2023-03-22T08:08:53.773Z,65.29
2023-03-22T08:11:22.826Z,65.27
2023-03-22T08:13:51.768Z,65.32
2023-03-22T08:16:20.734Z,65.09
2023-03-22T08:18:49.982Z,65.29
2023-03-22T08:21:18.985Z,65.23
2023-03-22T08:23:49.514Z,65.38
2023-03-22T08:26:18.711Z,65.37
2023-03-22T08:28:47.781Z,65.28
2023-03-22T08:31:18.002Z,65.31
2023-03-22T08:33:46.977Z,65.46
2023-03-22T08:36:18.221Z,65.39
2023-03-22T08:38:47.160Z,65.42
2023-03-22T08:41:16.363Z,65.39
2023-03-22T08:43:45.257Z,65.40
2023-03-22T08:46:14.379Z,65.59
2023-03-22T08:48:49.869Z,65.49
2023-03-22T08:51:20.099Z,65.54
2023-03-22T08:53:49.585Z,65.60
2023-03-22T08:56:19.602Z,65.54
2023-03-22T08:58:48.798Z,65.57
2023-03-22T09:01:20.471Z,65.57
2023-03-22T09:03:49.565Z,65.55
2023-03-22T09:06:18.427Z,65.61
2023-03-22T09:08:51.534Z,65.57
2023-03-22T09:11:21.014Z,65.53
2023-03-22T09:13:50.814Z,65.59
2023-03-22T09:16:19.852Z,65.55
2023-03-22T09:18:48.848Z,65.72
2023-03-22T09:21:17.958Z,65.78
2023-03-22T09:23:47.310Z,65.70
2023-03-22T09:26:16.543Z,65.55
2023-03-22T09:28:46.253Z,65.77
2023-03-22T09:31:15.656Z,65.80
2023-03-22T09:33:44.668Z,65.79
2023-03-22T09:36:13.798Z,65.76
2023-03-22T09:38:42.768Z,65.54
2023-03-22T09:41:17.295Z,65.70
2023-03-22T09:43:51.496Z,65.62
2023-03-22T09:46:29.215Z,65.63
2023-03-22T09:49:00.216Z,65.64
2023-03-22T09:51:38.629Z,65.81
2023-03-22T09:54:14.243Z,65.66
2023-03-22T09:56:44.755Z,65.45
2023-03-22T09:59:19.434Z,65.61
2023-03-22T10:01:56.518Z,65.64
2023-03-22T10:04:41.106Z,65.54
2023-03-22T10:07:19.334Z,65.51
2023-03-22T10:09:55.392Z,65.50
2023-03-22T10:12:29.151Z,65.63
2023-03-22T10:15:06.718Z,65.59
2023-03-22T10:17:37.839Z,65.62
2023-03-22T10:20:17.915Z,65.56
2023-03-22T10:22:51.582Z,65.66
2023-03-22T10:25:26.321Z,65.54
2023-03-22T10:27:57.231Z,65.54
2023-03-22T10:30:30.632Z,65.44
2023-03-22T10:33:02.273Z,65.42
2023-03-22T10:35:31.984Z,65.39
2023-03-22T10:38:05.892Z,65.49
2023-03-22T10:40:36.364Z,65.58
2023-03-22T10:43:14.433Z,65.57
2023-03-22T10:45:44.366Z,65.44
2023-03-22T10:48:22.766Z,65.42
2023-03-22T10:50:53.502Z,65.49
2023-03-22T10:53:29.674Z,65.35
2023-03-22T10:55:59.083Z,65.30
2023-03-22T10:58:31.917Z,65.34
2023-03-22T11:01:05.959Z,65.26
2023-03-22T11:03:39.794Z,65.33
2023-03-22T11:06:11.846Z,65.38
2023-03-22T11:08:44.405Z,65.17
2023-03-22T11:11:20.551Z,65.09
2023-03-22T11:14:01.337Z,65.43
2023-03-22T11:16:32.107Z,65.22
2023-03-22T11:19:03.232Z,64.90
2023-03-22T11:21:33.825Z,64.65
2023-03-22T11:24:06.981Z,64.79
2023-03-22T11:26:40.760Z,65.07
2023-03-22T11:29:17.388Z,64.90
2023-03-22T11:31:56.542Z,64.80
2023-03-22T11:34:28.272Z,64.65
2023-03-22T11:37:00.940Z,64.69
2023-03-22T11:39:30.486Z,64.64
2023-03-22T11:42:03.135Z,64.78
2023-03-22T11:44:37.280Z,64.64
2023-03-22T11:47:12.386Z,64.66
2023-03-22T11:49:47.836Z,64.79
2023-03-22T11:52:19.737Z,64.78
2023-03-22T11:54:49.413Z,64.68
2023-03-22T11:57:22.705Z,64.68
2023-03-22T11:59:59.264Z,64.64
2023-03-22T12:02:31.933Z,64.31
2023-03-22T12:05:08.628Z,64.28
2023-03-22T12:07:41.085Z,64.14
2023-03-22T12:10:17.002Z,64.32
2023-03-22T12:12:51.496Z,64.43
2023-03-22T12:15:23.350Z,64.28
2023-03-22T12:17:58.510Z,64.37
2023-03-22T12:20:38.049Z,64.46
2023-03-22T12:23:15.376Z,64.38
2023-03-22T12:25:50.693Z,64.38
2023-03-22T12:28:23.160Z,64.23
2023-03-22T12:30:55.615Z,64.31
2023-03-22T12:33:27.406Z,64.15
2023-03-22T12:36:01.133Z,63.94
2023-03-22T12:38:35.444Z,63.87
2023-03-22T12:41:09.269Z,63.70
2023-03-22T12:43:46.753Z,63.83
2023-03-22T12:46:21.047Z,63.70
2023-03-22T12:48:53.753Z,63.70
2023-03-22T12:51:22.846Z,63.44
2023-03-22T12:53:56.222Z,63.60
2023-03-22T12:56:29.743Z,63.61
2023-03-22T12:59:02.874Z,63.52
2023-03-22T13:01:37.737Z,63.51
2023-03-22T13:04:31.155Z,63.64
2023-03-22T13:07:11.921Z,63.38
2023-03-22T13:09:43.627Z,63.44
2023-03-22T13:12:33.437Z,63.47
2023-03-22T13:15:19.568Z,63.40
2023-03-22T13:17:49.879Z,63.30
2023-03-22T13:20:27.302Z,63.17
2023-03-22T13:23:26.866Z,63.26
2023-03-22T13:26:05.537Z,63.21
2023-03-22T13:28:36.835Z,63.47
2023-03-22T13:31:06.741Z,63.53
2023-03-22T13:33:37.078Z,63.47
2023-03-22T13:36:23.031Z,63.28
2023-03-22T13:38:57.370Z,62.94
2023-03-22T13:41:31.074Z,62.78
2023-03-22T13:44:02.181Z,62.89
2023-03-22T13:46:46.836Z,62.89
2023-03-22T13:49:42.540Z,62.98
2023-03-22T13:52:25.799Z,62.82
2023-03-22T13:54:57.366Z,62.85
2023-03-22T13:57:48.688Z,62.87
2023-03-22T14:00:44.072Z,62.79
2023-03-22T14:03:20.376Z,62.88
2023-03-22T14:05:56.653Z,62.91
2023-03-22T14:08:30.144Z,62.78
2023-03-22T14:11:07.705Z,62.93
2023-03-22T14:13:42.946Z,63.09
2023-03-22T14:16:18.194Z,62.98
2023-03-22T14:18:49.389Z,63.15
2023-03-22T14:21:23.413Z,63.01
